Terminal Aerodrome Forecast
Issued by NWS Sioux Falls, SD

Home | Current Version | Previous Version | Text Only | Print | Product List | Glossary Off
Versions: 1 2 3 4 5 6 7 8 9 10 11 12 13

000
FTUS43 KFSD 021720
TAFHON
TAF
KHON 021720Z 0218/0318 22005KT P6SM BKN250
     FM022100 22006KT P6SM VCSH BKN060
     FM022300 24006KT P6SM BKN100
     FM030000 24005KT P6SM SCT060
     FM031300 27006KT P6SM FEW200
     FM031600 30010KT P6SM FEW250=

USA.gov is the U.S. government's official web portal to all federal, state and local government web resources and services.